EmailTwitter


Surface observations / United Kingdom / EGUB (03658)

Regions: Quebec | Canada | USA | Europe | France | UK | Elsewhere
Station
Display
Info & Location for EGUB (03658) | Help decoding METAR

Weather Conditions observed on 2019/03/26 at 09:50 UTC at BENSON RAF, UK (EGUB)

Sky conditions: partly cloudy.

Temperature: 9.0 Celsius.

Dewpoint: 5.0 Celsius.

Relative Humidity: 76%

Winds: Northwest at 11 km/h or 6 knots.

Mean Sea level Pressure: 103.50 kilopascals.

Horizontal visibility: 6.21 statute miles or 9.94 kilometers.

Height of the Ceiling: 7620 metres ( 25000 feet ).

Coded METAR:

EGUB 260950Z 31006KT 9999 FEW020 BKN250 09/05 Q1035 BLU NOSIG=